sensor_id;sensor_type;location;lat;lon;timestamp;P1;durP1;ratioP1;P2;durP2;ratioP2
14306;SDS011;7237;49.500;11.400;2022-10-16T00:01:07;2.00;;;1.42;;
14306;SDS011;7237;49.500;11.400;2022-10-16T00:03:34;4.18;;;1.50;;
14306;SDS011;7237;49.500;11.400;2022-10-16T00:06:02;1.73;;;1.30;;
14306;SDS011;7237;49.500;11.400;2022-10-16T00:08:30;7.05;;;1.52;;
14306;SDS011;7237;49.500;11.400;2022-10-16T00:11:02;4.10;;;1.60;;
14306;SDS011;7237;49.500;11.400;2022-10-16T00:13:29;2.25;;;1.40;;
14306;SDS011;7237;49.500;11.400;2022-10-16T00:15:57;3.53;;;1.50;;
14306;SDS011;7237;49.500;11.400;2022-10-16T00:18:24;5.22;;;1.70;;
14306;SDS011;7237;49.500;11.400;2022-10-16T00:20:52;4.07;;;1.55;;
14306;SDS011;7237;49.500;11.400;2022-10-16T00:23:19;1.95;;;1.50;;
14306;SDS011;7237;49.500;11.400;2022-10-16T00:25:53;3.00;;;1.70;;
14306;SDS011;7237;49.500;11.400;2022-10-16T00:28:22;4.22;;;2.10;;
14306;SDS011;7237;49.500;11.400;2022-10-16T00:30:49;5.78;;;1.80;;
14306;SDS011;7237;49.500;11.400;2022-10-16T00:33:16;4.32;;;1.90;;
14306;SDS011;7237;49.500;11.400;2022-10-16T00:35:43;3.90;;;2.03;;
14306;SDS011;7237;49.500;11.400;2022-10-16T00:38:10;4.10;;;1.50;;
14306;SDS011;7237;49.500;11.400;2022-10-16T00:40:38;6.35;;;2.20;;
14306;SDS011;7237;49.500;11.400;2022-10-16T00:43:08;6.90;;;2.40;;
14306;SDS011;7237;49.500;11.400;2022-10-16T00:45:37;5.50;;;2.30;;
14306;SDS011;7237;49.500;11.400;2022-10-16T00:48:06;5.05;;;1.73;;
14306;SDS011;7237;49.500;11.400;2022-10-16T00:50:37;2.78;;;1.75;;
14306;SDS011;7237;49.500;11.400;2022-10-16T00:53:08;2.58;;;2.00;;
14306;SDS011;7237;49.500;11.400;2022-10-16T00:55:35;2.35;;;2.00;;
14306;SDS011;7237;49.500;11.400;2022-10-16T00:58:02;2.03;;;1.80;;
14306;SDS011;7237;49.500;11.400;2022-10-16T01:00:30;3.37;;;1.80;;
14306;SDS011;7237;49.500;11.400;2022-10-16T01:02:59;4.32;;;1.80;;
14306;SDS011;7237;49.500;11.400;2022-10-16T01:05:28;7.13;;;1.87;;
14306;SDS011;7237;49.500;11.400;2022-10-16T01:07:58;9.85;;;1.80;;
14306;SDS011;7237;49.500;11.400;2022-10-16T01:10:30;3.47;;;1.85;;
14306;SDS011;7237;49.500;11.400;2022-10-16T01:13:03;5.75;;;1.80;;
14306;SDS011;7237;49.500;11.400;2022-10-16T01:15:32;5.20;;;2.03;;
14306;SDS011;7237;49.500;11.400;2022-10-16T01:18:03;4.03;;;1.60;;
14306;SDS011;7237;49.500;11.400;2022-10-16T01:20:34;2.67;;;1.80;;
14306;SDS011;7237;49.500;11.400;2022-10-16T01:23:06;5.20;;;1.85;;
14306;SDS011;7237;49.500;11.400;2022-10-16T01:25:43;3.78;;;1.70;;
14306;SDS011;7237;49.500;11.400;2022-10-16T01:28:16;8.93;;;1.80;;
14306;SDS011;7237;49.500;11.400;2022-10-16T01:30:44;5.97;;;1.90;;
14306;SDS011;7237;49.500;11.400;2022-10-16T01:33:14;5.75;;;1.90;;
14306;SDS011;7237;49.500;11.400;2022-10-16T01:35:44;4.75;;;1.70;;
14306;SDS011;7237;49.500;11.400;2022-10-16T01:38:14;3.45;;;1.52;;
14306;SDS011;7237;49.500;11.400;2022-10-16T01:40:44;4.32;;;1.83;;
14306;SDS011;7237;49.500;11.400;2022-10-16T01:43:12;3.22;;;2.00;;
14306;SDS011;7237;49.500;11.400;2022-10-16T01:45:42;3.63;;;1.50;;
14306;SDS011;7237;49.500;11.400;2022-10-16T01:48:11;5.43;;;1.67;;
14306;SDS011;7237;49.500;11.400;2022-10-16T01:50:39;10.30;;;1.90;;
14306;SDS011;7237;49.500;11.400;2022-10-16T01:53:08;1.60;;;1.50;;
14306;SDS011;7237;49.500;11.400;2022-10-16T01:55:37;3.25;;;1.70;;
14306;SDS011;7237;49.500;11.400;2022-10-16T01:58:08;4.32;;;1.80;;
14306;SDS011;7237;49.500;11.400;2022-10-16T02:00:37;1.98;;;1.50;;
14306;SDS011;7237;49.500;11.400;2022-10-16T02:03:06;1.67;;;1.50;;
14306;SDS011;7237;49.500;11.400;2022-10-16T02:05:35;5.18;;;1.55;;
14306;SDS011;7237;49.500;11.400;2022-10-16T02:08:03;4.20;;;1.63;;
14306;SDS011;7237;49.500;11.400;2022-10-16T02:10:31;7.97;;;1.88;;
14306;SDS011;7237;49.500;11.400;2022-10-16T02:12:59;2.13;;;1.50;;
14306;SDS011;7237;49.500;11.400;2022-10-16T02:15:27;3.47;;;1.30;;
14306;SDS011;7237;49.500;11.400;2022-10-16T02:17:54;1.60;;;1.35;;
14306;SDS011;7237;49.500;11.400;2022-10-16T02:20:25;3.15;;;1.50;;
14306;SDS011;7237;49.500;11.400;2022-10-16T02:22:53;2.47;;;1.45;;
14306;SDS011;7237;49.500;11.400;2022-10-16T02:25:22;4.22;;;1.40;;
14306;SDS011;7237;49.500;11.400;2022-10-16T02:27:53;1.98;;;1.30;;
14306;SDS011;7237;49.500;11.400;2022-10-16T02:30:23;3.35;;;1.50;;
14306;SDS011;7237;49.500;11.400;2022-10-16T02:32:51;2.00;;;1.38;;
14306;SDS011;7237;49.500;11.400;2022-10-16T02:35:19;7.00;;;1.50;;
14306;SDS011;7237;49.500;11.400;2022-10-16T02:37:49;2.20;;;1.70;;
14306;SDS011;7237;49.500;11.400;2022-10-16T02:40:16;1.42;;;1.25;;
14306;SDS011;7237;49.500;11.400;2022-10-16T02:42:44;7.35;;;1.60;;
14306;SDS011;7237;49.500;11.400;2022-10-16T02:45:11;2.08;;;1.60;;
14306;SDS011;7237;49.500;11.400;2022-10-16T02:47:38;2.42;;;1.70;;
14306;SDS011;7237;49.500;11.400;2022-10-16T02:50:05;2.33;;;1.60;;
14306;SDS011;7237;49.500;11.400;2022-10-16T02:52:33;4.63;;;1.60;;
14306;SDS011;7237;49.500;11.400;2022-10-16T02:55:01;1.48;;;1.38;;
14306;SDS011;7237;49.500;11.400;2022-10-16T02:57:28;4.82;;;1.42;;
14306;SDS011;7237;49.500;11.400;2022-10-16T02:59:56;4.05;;;1.50;;
14306;SDS011;7237;49.500;11.400;2022-10-16T03:02:23;3.65;;;1.50;;
14306;SDS011;7237;49.500;11.400;2022-10-16T03:04:50;3.50;;;1.35;;
14306;SDS011;7237;49.500;11.400;2022-10-16T03:07:17;1.98;;;1.30;;
14306;SDS011;7237;49.500;11.400;2022-10-16T03:09:44;4.22;;;1.45;;
14306;SDS011;7237;49.500;11.400;2022-10-16T03:12:12;3.35;;;1.45;;
14306;SDS011;7237;49.500;11.400;2022-10-16T03:14:39;2.72;;;1.42;;
14306;SDS011;7237;49.500;11.400;2022-10-16T03:17:06;3.25;;;1.65;;
14306;SDS011;7237;49.500;11.400;2022-10-16T03:19:34;5.07;;;1.45;;
14306;SDS011;7237;49.500;11.400;2022-10-16T03:22:01;1.75;;;1.40;;
14306;SDS011;7237;49.500;11.400;2022-10-16T03:24:28;2.13;;;1.40;;
14306;SDS011;7237;49.500;11.400;2022-10-16T03:26:55;5.40;;;1.77;;
14306;SDS011;7237;49.500;11.400;2022-10-16T03:29:24;2.40;;;1.42;;
14306;SDS011;7237;49.500;11.400;2022-10-16T03:31:52;5.18;;;1.45;;
14306;SDS011;7237;49.500;11.400;2022-10-16T03:34:19;2.38;;;1.40;;
14306;SDS011;7237;49.500;11.400;2022-10-16T03:36:46;4.60;;;1.33;;
14306;SDS011;7237;49.500;11.400;2022-10-16T03:39:13;6.70;;;1.67;;
14306;SDS011;7237;49.500;11.400;2022-10-16T03:41:41;3.83;;;1.65;;
14306;SDS011;7237;49.500;11.400;2022-10-16T03:44:08;2.85;;;1.75;;
14306;SDS011;7237;49.500;11.400;2022-10-16T03:46:36;3.60;;;1.42;;
14306;SDS011;7237;49.500;11.400;2022-10-16T03:49:03;4.20;;;1.40;;
14306;SDS011;7237;49.500;11.400;2022-10-16T03:51:30;4.35;;;1.35;;
14306;SDS011;7237;49.500;11.400;2022-10-16T03:53:57;2.85;;;1.50;;
14306;SDS011;7237;49.500;11.400;2022-10-16T03:56:24;5.47;;;1.60;;
14306;SDS011;7237;49.500;11.400;2022-10-16T03:58:52;4.68;;;1.20;;
14306;SDS011;7237;49.500;11.400;2022-10-16T04:01:19;5.35;;;1.27;;
14306;SDS011;7237;49.500;11.400;2022-10-16T04:03:47;4.32;;;1.35;;
14306;SDS011;7237;49.500;11.400;2022-10-16T04:06:14;2.47;;;1.30;;
14306;SDS011;7237;49.500;11.400;2022-10-16T04:08:42;1.85;;;1.50;;
14306;SDS011;7237;49.500;11.400;2022-10-16T04:11:09;8.43;;;1.60;;
14306;SDS011;7237;49.500;11.400;2022-10-16T04:13:36;8.20;;;1.80;;
14306;SDS011;7237;49.500;11.400;2022-10-16T04:16:03;1.40;;;1.30;;
14306;SDS011;7237;49.500;11.400;2022-10-16T04:18:31;3.90;;;1.50;;
14306;SDS011;7237;49.500;11.400;2022-10-16T04:21:02;2.70;;;1.30;;
14306;SDS011;7237;49.500;11.400;2022-10-16T04:23:30;2.83;;;1.70;;
14306;SDS011;7237;49.500;11.400;2022-10-16T04:25:57;3.33;;;1.40;;
14306;SDS011;7237;49.500;11.400;2022-10-16T04:28:24;3.17;;;1.75;;
14306;SDS011;7237;49.500;11.400;2022-10-16T04:30:51;4.03;;;1.65;;
14306;SDS011;7237;49.500;11.400;2022-10-16T04:33:19;6.00;;;1.70;;
14306;SDS011;7237;49.500;11.400;2022-10-16T04:35:46;4.18;;;1.33;;
14306;SDS011;7237;49.500;11.400;2022-10-16T04:38:14;7.88;;;1.60;;
14306;SDS011;7237;49.500;11.400;2022-10-16T04:40:42;1.90;;;1.60;;
14306;SDS011;7237;49.500;11.400;2022-10-16T04:43:09;4.20;;;1.55;;
14306;SDS011;7237;49.500;11.400;2022-10-16T04:45:36;1.42;;;1.33;;
14306;SDS011;7237;49.500;11.400;2022-10-16T04:48:03;1.50;;;1.40;;
14306;SDS011;7237;49.500;11.400;2022-10-16T04:50:30;6.38;;;1.80;;
14306;SDS011;7237;49.500;11.400;2022-10-16T04:52:57;4.10;;;1.80;;
14306;SDS011;7237;49.500;11.400;2022-10-16T04:55:26;4.10;;;1.60;;
14306;SDS011;7237;49.500;11.400;2022-10-16T04:57:53;1.58;;;1.40;;
14306;SDS011;7237;49.500;11.400;2022-10-16T05:00:20;2.85;;;1.52;;
14306;SDS011;7237;49.500;11.400;2022-10-16T05:02:49;5.85;;;1.92;;
14306;SDS011;7237;49.500;11.400;2022-10-16T05:05:16;5.95;;;1.80;;
14306;SDS011;7237;49.500;11.400;2022-10-16T05:07:44;4.18;;;1.40;;
14306;SDS011;7237;49.500;11.400;2022-10-16T05:10:11;5.15;;;1.45;;
14306;SDS011;7237;49.500;11.400;2022-10-16T05:12:39;2.97;;;1.60;;
14306;SDS011;7237;49.500;11.400;2022-10-16T05:15:07;5.63;;;1.98;;
14306;SDS011;7237;49.500;11.400;2022-10-16T05:17:34;2.58;;;1.60;;
14306;SDS011;7237;49.500;11.400;2022-10-16T05:20:01;3.22;;;1.90;;
14306;SDS011;7237;49.500;11.400;2022-10-16T05:22:28;3.83;;;2.13;;
14306;SDS011;7237;49.500;11.400;2022-10-16T05:24:55;4.30;;;1.90;;
14306;SDS011;7237;49.500;11.400;2022-10-16T05:27:22;3.28;;;2.05;;
14306;SDS011;7237;49.500;11.400;2022-10-16T05:29:51;5.03;;;1.90;;
14306;SDS011;7237;49.500;11.400;2022-10-16T05:32:18;6.80;;;2.10;;
14306;SDS011;7237;49.500;11.400;2022-10-16T05:34:45;4.55;;;2.08;;
14306;SDS011;7237;49.500;11.400;2022-10-16T05:37:13;6.00;;;2.07;;
14306;SDS011;7237;49.500;11.400;2022-10-16T05:39:40;4.40;;;1.90;;
14306;SDS011;7237;49.500;11.400;2022-10-16T05:42:07;1.97;;;1.80;;
14306;SDS011;7237;49.500;11.400;2022-10-16T05:44:34;3.10;;;1.90;;
14306;SDS011;7237;49.500;11.400;2022-10-16T05:47:02;4.00;;;1.90;;
14306;SDS011;7237;49.500;11.400;2022-10-16T05:49:29;7.13;;;1.90;;
14306;SDS011;7237;49.500;11.400;2022-10-16T05:51:56;6.60;;;1.87;;
14306;SDS011;7237;49.500;11.400;2022-10-16T05:54:24;4.07;;;2.10;;
14306;SDS011;7237;49.500;11.400;2022-10-16T05:56:51;3.37;;;2.00;;
14306;SDS011;7237;49.500;11.400;2022-10-16T05:59:18;3.10;;;2.10;;
14306;SDS011;7237;49.500;11.400;2022-10-16T06:01:45;6.57;;;2.00;;
14306;SDS011;7237;49.500;11.400;2022-10-16T06:04:13;3.37;;;2.70;;
14306;SDS011;7237;49.500;11.400;2022-10-16T06:06:40;3.83;;;2.10;;
14306;SDS011;7237;49.500;11.400;2022-10-16T06:09:08;3.10;;;1.90;;
14306;SDS011;7237;49.500;11.400;2022-10-16T06:11:36;2.00;;;1.90;;
14306;SDS011;7237;49.500;11.400;2022-10-16T06:14:03;3.33;;;1.80;;
14306;SDS011;7237;49.500;11.400;2022-10-16T06:16:32;4.90;;;1.97;;
14306;SDS011;7237;49.500;11.400;2022-10-16T06:18:59;3.83;;;1.90;;
14306;SDS011;7237;49.500;11.400;2022-10-16T06:21:28;5.47;;;2.23;;
14306;SDS011;7237;49.500;11.400;2022-10-16T06:23:55;5.63;;;2.20;;
14306;SDS011;7237;49.500;11.400;2022-10-16T06:26:23;6.43;;;2.40;;
14306;SDS011;7237;49.500;11.400;2022-10-16T06:28:51;5.75;;;2.70;;
14306;SDS011;7237;49.500;11.400;2022-10-16T06:31:18;4.95;;;1.77;;
14306;SDS011;7237;49.500;11.400;2022-10-16T06:33:45;7.30;;;2.20;;
14306;SDS011;7237;49.500;11.400;2022-10-16T06:36:13;6.10;;;2.33;;
14306;SDS011;7237;49.500;11.400;2022-10-16T06:38:41;3.50;;;2.30;;
14306;SDS011;7237;49.500;11.400;2022-10-16T06:41:09;3.00;;;2.28;;
14306;SDS011;7237;49.500;11.400;2022-10-16T06:43:37;9.02;;;2.33;;
14306;SDS011;7237;49.500;11.400;2022-10-16T06:46:05;5.55;;;2.30;;
14306;SDS011;7237;49.500;11.400;2022-10-16T06:48:33;5.00;;;2.10;;
14306;SDS011;7237;49.500;11.400;2022-10-16T06:51:00;6.55;;;2.85;;
14306;SDS011;7237;49.500;11.400;2022-10-16T06:53:28;4.50;;;2.55;;
14306;SDS011;7237;49.500;11.400;2022-10-16T06:55:57;2.42;;;2.05;;
14306;SDS011;7237;49.500;11.400;2022-10-16T06:58:24;2.22;;;2.03;;
14306;SDS011;7237;49.500;11.400;2022-10-16T07:00:54;6.38;;;2.00;;
14306;SDS011;7237;49.500;11.400;2022-10-16T07:03:22;4.22;;;2.20;;
14306;SDS011;7237;49.500;11.400;2022-10-16T07:05:49;5.82;;;2.10;;
14306;SDS011;7237;49.500;11.400;2022-10-16T07:08:16;2.40;;;2.20;;
14306;SDS011;7237;49.500;11.400;2022-10-16T07:10:43;2.25;;;1.90;;
14306;SDS011;7237;49.500;11.400;2022-10-16T07:13:12;1.88;;;1.67;;
14306;SDS011;7237;49.500;11.400;2022-10-16T07:15:39;3.70;;;1.85;;
14306;SDS011;7237;49.500;11.400;2022-10-16T07:18:06;5.82;;;2.30;;
14306;SDS011;7237;49.500;11.400;2022-10-16T07:20:33;3.88;;;2.28;;
14306;SDS011;7237;49.500;11.400;2022-10-16T07:23:02;7.00;;;2.58;;
14306;SDS011;7237;49.500;11.400;2022-10-16T07:25:29;4.65;;;2.40;;
14306;SDS011;7237;49.500;11.400;2022-10-16T07:27:56;3.95;;;2.25;;
14306;SDS011;7237;49.500;11.400;2022-10-16T07:30:24;5.07;;;3.22;;
14306;SDS011;7237;49.500;11.400;2022-10-16T07:32:51;10.90;;;5.88;;
14306;SDS011;7237;49.500;11.400;2022-10-16T07:35:19;14.98;;;6.80;;
14306;SDS011;7237;49.500;11.400;2022-10-16T07:37:46;10.77;;;5.57;;
14306;SDS011;7237;49.500;11.400;2022-10-16T07:40:13;14.30;;;6.78;;
14306;SDS011;7237;49.500;11.400;2022-10-16T07:42:40;12.90;;;6.88;;
14306;SDS011;7237;49.500;11.400;2022-10-16T07:45:07;12.10;;;6.07;;
14306;SDS011;7237;49.500;11.400;2022-10-16T07:47:36;15.18;;;7.68;;
14306;SDS011;7237;49.500;11.400;2022-10-16T07:50:03;16.75;;;7.03;;
14306;SDS011;7237;49.500;11.400;2022-10-16T07:52:31;16.05;;;7.43;;
14306;SDS011;7237;49.500;11.400;2022-10-16T07:54:58;11.98;;;7.35;;
14306;SDS011;7237;49.500;11.400;2022-10-16T07:57:25;11.95;;;7.20;;
14306;SDS011;7237;49.500;11.400;2022-10-16T07:59:52;14.75;;;7.13;;
14306;SDS011;7237;49.500;11.400;2022-10-16T08:02:19;7.53;;;4.50;;
14306;SDS011;7237;49.500;11.400;2022-10-16T08:04:47;7.15;;;3.72;;
14306;SDS011;7237;49.500;11.400;2022-10-16T08:07:15;6.35;;;3.72;;
14306;SDS011;7237;49.500;11.400;2022-10-16T08:09:42;12.55;;;3.45;;
14306;SDS011;7237;49.500;11.400;2022-10-16T08:12:09;5.32;;;3.08;;
14306;SDS011;7237;49.500;11.400;2022-10-16T08:14:36;4.82;;;1.92;;
14306;SDS011;7237;49.500;11.400;2022-10-16T08:17:03;3.28;;;1.55;;
14306;SDS011;7237;49.500;11.400;2022-10-16T08:19:30;3.72;;;1.80;;
14306;SDS011;7237;49.500;11.400;2022-10-16T08:22:00;3.25;;;1.88;;
14306;SDS011;7237;49.500;11.400;2022-10-16T08:24:27;7.72;;;2.22;;
14306;SDS011;7237;49.500;11.400;2022-10-16T08:26:56;2.03;;;1.55;;
14306;SDS011;7237;49.500;11.400;2022-10-16T08:29:23;2.10;;;1.63;;
14306;SDS011;7237;49.500;11.400;2022-10-16T08:31:50;3.78;;;1.52;;
14306;SDS011;7237;49.500;11.400;2022-10-16T08:34:17;2.58;;;2.38;;
14306;SDS011;7237;49.500;11.400;2022-10-16T08:36:44;2.53;;;2.10;;
14306;SDS011;7237;49.500;11.400;2022-10-16T08:39:12;3.10;;;1.98;;
14306;SDS011;7237;49.500;11.400;2022-10-16T08:44:28;4.45;;;1.92;;
14306;SDS011;7237;49.500;11.400;2022-10-16T08:46:58;3.58;;;1.92;;
14306;SDS011;7237;49.500;11.400;2022-10-16T08:49:27;3.40;;;2.13;;
14306;SDS011;7237;49.500;11.400;2022-10-16T08:51:54;2.60;;;1.92;;
14306;SDS011;7237;49.500;11.400;2022-10-16T08:54:26;2.25;;;1.90;;
14306;SDS011;7237;49.500;11.400;2022-10-16T08:56:55;4.40;;;1.95;;
14306;SDS011;7237;49.500;11.400;2022-10-16T08:59:22;2.75;;;1.75;;
14306;SDS011;7237;49.500;11.400;2022-10-16T09:01:50;1.70;;;1.60;;
14306;SDS011;7237;49.500;11.400;2022-10-16T09:04:29;3.30;;;1.77;;
14306;SDS011;7237;49.500;11.400;2022-10-16T09:07:02;2.58;;;1.70;;
14306;SDS011;7237;49.500;11.400;2022-10-16T09:09:45;6.43;;;1.80;;
14306;SDS011;7237;49.500;11.400;2022-10-16T09:12:15;4.45;;;1.85;;
14306;SDS011;7237;49.500;11.400;2022-10-16T09:14:47;2.50;;;1.92;;
14306;SDS011;7237;49.500;11.400;2022-10-16T09:17:20;1.95;;;1.75;;
14306;SDS011;7237;49.500;11.400;2022-10-16T09:19:51;3.38;;;1.63;;
14306;SDS011;7237;49.500;11.400;2022-10-16T09:22:20;1.42;;;1.33;;
14306;SDS011;7237;49.500;11.400;2022-10-16T09:24:50;5.75;;;1.73;;
14306;SDS011;7237;49.500;11.400;2022-10-16T09:27:17;2.33;;;1.70;;
14306;SDS011;7237;49.500;11.400;2022-10-16T09:29:44;2.55;;;1.60;;
14306;SDS011;7237;49.500;11.400;2022-10-16T09:32:11;2.45;;;1.40;;
14306;SDS011;7237;49.500;11.400;2022-10-16T09:34:40;2.00;;;1.67;;
14306;SDS011;7237;49.500;11.400;2022-10-16T09:37:09;2.55;;;1.15;;
14306;SDS011;7237;49.500;11.400;2022-10-16T09:39:45;1.58;;;1.40;;
14306;SDS011;7237;49.500;11.400;2022-10-16T09:42:15;5.07;;;1.60;;
14306;SDS011;7237;49.500;11.400;2022-10-16T09:44:42;2.22;;;1.55;;
14306;SDS011;7237;49.500;11.400;2022-10-16T09:47:14;5.88;;;1.75;;
14306;SDS011;7237;49.500;11.400;2022-10-16T09:49:50;3.42;;;1.30;;
14306;SDS011;7237;49.500;11.400;2022-10-16T09:52:18;1.73;;;1.60;;
14306;SDS011;7237;49.500;11.400;2022-10-16T09:54:48;3.83;;;1.65;;
14306;SDS011;7237;49.500;11.400;2022-10-16T09:57:17;2.22;;;1.80;;
14306;SDS011;7237;49.500;11.400;2022-10-16T09:59:47;1.75;;;1.50;;
14306;SDS011;7237;49.500;11.400;2022-10-16T10:02:15;2.95;;;1.90;;
14306;SDS011;7237;49.500;11.400;2022-10-16T10:04:44;1.52;;;1.42;;
14306;SDS011;7237;49.500;11.400;2022-10-16T10:07:17;3.65;;;1.50;;
14306;SDS011;7237;49.500;11.400;2022-10-16T10:09:45;3.80;;;1.50;;
14306;SDS011;7237;49.500;11.400;2022-10-16T10:12:20;1.67;;;1.58;;
14306;SDS011;7237;49.500;11.400;2022-10-16T10:14:48;4.45;;;1.67;;
14306;SDS011;7237;49.500;11.400;2022-10-16T10:17:17;3.13;;;1.48;;
14306;SDS011;7237;49.500;11.400;2022-10-16T10:19:46;2.15;;;1.58;;
14306;SDS011;7237;49.500;11.400;2022-10-16T10:22:21;3.38;;;1.80;;
14306;SDS011;7237;49.500;11.400;2022-10-16T10:25:00;5.47;;;1.73;;
14306;SDS011;7237;49.500;11.400;2022-10-16T10:27:32;3.85;;;1.67;;
14306;SDS011;7237;49.500;11.400;2022-10-16T10:30:01;1.60;;;1.48;;
14306;SDS011;7237;49.500;11.400;2022-10-16T10:32:33;3.97;;;1.63;;
14306;SDS011;7237;49.500;11.400;2022-10-16T10:35:11;1.83;;;1.45;;
14306;SDS011;7237;49.500;11.400;2022-10-16T10:37:43;1.48;;;1.20;;
14306;SDS011;7237;49.500;11.400;2022-10-16T10:40:15;2.22;;;1.50;;
14306;SDS011;7237;49.500;11.400;2022-10-16T10:42:48;1.75;;;1.65;;
14306;SDS011;7237;49.500;11.400;2022-10-16T10:45:21;1.95;;;1.40;;
14306;SDS011;7237;49.500;11.400;2022-10-16T10:47:53;2.38;;;1.25;;
14306;SDS011;7237;49.500;11.400;2022-10-16T10:50:25;4.97;;;1.27;;
14306;SDS011;7237;49.500;11.400;2022-10-16T10:52:58;2.92;;;1.50;;
14306;SDS011;7237;49.500;11.400;2022-10-16T10:55:28;2.40;;;1.38;;
14306;SDS011;7237;49.500;11.400;2022-10-16T11:00:46;5.38;;;1.50;;
14306;SDS011;7237;49.500;11.400;2022-10-16T11:03:21;1.40;;;1.30;;
14306;SDS011;7237;49.500;11.400;2022-10-16T11:05:54;4.15;;;1.80;;
14306;SDS011;7237;49.500;11.400;2022-10-16T11:08:25;3.53;;;1.30;;
14306;SDS011;7237;49.500;11.400;2022-10-16T11:10:53;2.97;;;1.23;;
14306;SDS011;7237;49.500;11.400;2022-10-16T11:13:23;2.75;;;1.13;;
14306;SDS011;7237;49.500;11.400;2022-10-16T11:15:53;2.25;;;1.17;;
14306;SDS011;7237;49.500;11.400;2022-10-16T11:18:22;3.50;;;1.17;;
14306;SDS011;7237;49.500;11.400;2022-10-16T11:20:51;5.88;;;1.42;;
14306;SDS011;7237;49.500;11.400;2022-10-16T11:23:21;2.53;;;1.00;;
14306;SDS011;7237;49.500;11.400;2022-10-16T11:25:50;3.15;;;1.45;;
14306;SDS011;7237;49.500;11.400;2022-10-16T11:28:18;4.50;;;1.35;;
14306;SDS011;7237;49.500;11.400;2022-10-16T11:30:47;3.05;;;1.40;;
14306;SDS011;7237;49.500;11.400;2022-10-16T11:33:24;2.03;;;1.30;;
14306;SDS011;7237;49.500;11.400;2022-10-16T11:35:57;1.27;;;1.17;;
14306;SDS011;7237;49.500;11.400;2022-10-16T11:38:27;1.40;;;1.10;;
14306;SDS011;7237;49.500;11.400;2022-10-16T11:40:56;2.80;;;1.20;;
14306;SDS011;7237;49.500;11.400;2022-10-16T11:43:26;2.97;;;1.27;;
14306;SDS011;7237;49.500;11.400;2022-10-16T11:45:54;2.63;;;1.10;;
14306;SDS011;7237;49.500;11.400;2022-10-16T11:48:25;2.35;;;1.15;;
14306;SDS011;7237;49.500;11.400;2022-10-16T11:50:53;4.68;;;1.30;;
14306;SDS011;7237;49.500;11.400;2022-10-16T11:53:28;1.55;;;1.25;;
14306;SDS011;7237;49.500;11.400;2022-10-16T11:55:56;1.35;;;1.25;;
14306;SDS011;7237;49.500;11.400;2022-10-16T11:58:24;3.25;;;1.20;;
14306;SDS011;7237;49.500;11.400;2022-10-16T12:00:55;2.70;;;1.10;;
14306;SDS011;7237;49.500;11.400;2022-10-16T12:03:25;2.42;;;1.10;;
14306;SDS011;7237;49.500;11.400;2022-10-16T12:06:05;1.40;;;1.13;;
14306;SDS011;7237;49.500;11.400;2022-10-16T12:08:35;2.10;;;1.20;;
14306;SDS011;7237;49.500;11.400;2022-10-16T12:11:08;2.60;;;0.98;;
14306;SDS011;7237;49.500;11.400;2022-10-16T12:13:36;3.25;;;1.17;;
14306;SDS011;7237;49.500;11.400;2022-10-16T12:16:05;5.35;;;1.75;;
14306;SDS011;7237;49.500;11.400;2022-10-16T12:18:34;1.50;;;1.20;;
14306;SDS011;7237;49.500;11.400;2022-10-16T12:21:01;1.17;;;1.10;;
14306;SDS011;7237;49.500;11.400;2022-10-16T12:23:31;2.45;;;1.20;;
14306;SDS011;7237;49.500;11.400;2022-10-16T12:25:59;1.67;;;1.35;;
14306;SDS011;7237;49.500;11.400;2022-10-16T12:28:27;1.05;;;0.95;;
14306;SDS011;7237;49.500;11.400;2022-10-16T12:30:56;2.53;;;1.10;;
14306;SDS011;7237;49.500;11.400;2022-10-16T12:33:23;2.67;;;1.20;;
14306;SDS011;7237;49.500;11.400;2022-10-16T12:35:53;1.50;;;1.10;;
14306;SDS011;7237;49.500;11.400;2022-10-16T12:38:21;3.42;;;1.40;;
14306;SDS011;7237;49.500;11.400;2022-10-16T12:40:54;2.00;;;1.35;;
14306;SDS011;7237;49.500;11.400;2022-10-16T12:46:24;2.65;;;1.00;;
14306;SDS011;7237;49.500;11.400;2022-10-16T12:49:05;1.92;;;1.15;;
14306;SDS011;7237;49.500;11.400;2022-10-16T12:51:35;4.35;;;1.10;;
14306;SDS011;7237;49.500;11.400;2022-10-16T12:54:03;4.80;;;1.20;;
14306;SDS011;7237;49.500;11.400;2022-10-16T12:56:39;3.13;;;1.23;;
14306;SDS011;7237;49.500;11.400;2022-10-16T12:59:10;3.53;;;1.10;;
14306;SDS011;7237;49.500;11.400;2022-10-16T13:01:42;2.67;;;1.17;;
14306;SDS011;7237;49.500;11.400;2022-10-16T13:07:10;1.65;;;1.17;;
14306;SDS011;7237;49.500;11.400;2022-10-16T13:09:45;4.82;;;1.38;;
14306;SDS011;7237;49.500;11.400;2022-10-16T13:12:19;1.75;;;1.35;;
14306;SDS011;7237;49.500;11.400;2022-10-16T13:15:05;2.47;;;1.30;;
14306;SDS011;7237;49.500;11.400;2022-10-16T13:17:36;5.60;;;1.33;;
14306;SDS011;7237;49.500;11.400;2022-10-16T13:20:06;4.00;;;1.30;;
14306;SDS011;7237;49.500;11.400;2022-10-16T13:22:41;4.53;;;1.30;;
14306;SDS011;7237;49.500;11.400;2022-10-16T13:25:16;6.95;;;1.33;;
14306;SDS011;7237;49.500;11.400;2022-10-16T13:27:45;6.50;;;1.40;;
14306;SDS011;7237;49.500;11.400;2022-10-16T13:30:14;3.80;;;1.40;;
14306;SDS011;7237;49.500;11.400;2022-10-16T13:32:44;7.70;;;1.10;;
14306;SDS011;7237;49.500;11.400;2022-10-16T13:35:18;7.35;;;1.50;;
14306;SDS011;7237;49.500;11.400;2022-10-16T13:37:46;2.88;;;1.23;;
14306;SDS011;7237;49.500;11.400;2022-10-16T13:40:18;3.83;;;1.52;;
14306;SDS011;7237;49.500;11.400;2022-10-16T13:42:45;3.83;;;1.10;;
14306;SDS011;7237;49.500;11.400;2022-10-16T13:45:19;2.13;;;1.33;;
14306;SDS011;7237;49.500;11.400;2022-10-16T13:47:46;2.55;;;1.27;;
14306;SDS011;7237;49.500;11.400;2022-10-16T13:50:15;2.33;;;1.20;;
14306;SDS011;7237;49.500;11.400;2022-10-16T13:52:42;4.85;;;1.10;;
14306;SDS011;7237;49.500;11.400;2022-10-16T13:55:11;1.42;;;1.00;;
14306;SDS011;7237;49.500;11.400;2022-10-16T13:57:39;5.13;;;1.30;;
14306;SDS011;7237;49.500;11.400;2022-10-16T14:00:19;4.03;;;1.25;;
14306;SDS011;7237;49.500;11.400;2022-10-16T14:02:49;1.77;;;1.23;;
14306;SDS011;7237;49.500;11.400;2022-10-16T14:05:18;3.10;;;1.10;;
14306;SDS011;7237;49.500;11.400;2022-10-16T14:07:47;2.50;;;1.17;;
14306;SDS011;7237;49.500;11.400;2022-10-16T14:10:20;1.45;;;0.90;;
14306;SDS011;7237;49.500;11.400;2022-10-16T14:12:54;4.53;;;1.08;;
14306;SDS011;7237;49.500;11.400;2022-10-16T14:15:21;1.98;;;0.93;;
14306;SDS011;7237;49.500;11.400;2022-10-16T14:17:49;1.27;;;1.00;;
14306;SDS011;7237;49.500;11.400;2022-10-16T14:20:17;1.15;;;1.05;;
14306;SDS011;7237;49.500;11.400;2022-10-16T14:22:44;2.17;;;1.75;;
14306;SDS011;7237;49.500;11.400;2022-10-16T14:27:59;2.90;;;1.20;;
14306;SDS011;7237;49.500;11.400;2022-10-16T14:30:27;3.75;;;1.10;;
14306;SDS011;7237;49.500;11.400;2022-10-16T14:32:55;1.92;;;1.27;;
14306;SDS011;7237;49.500;11.400;2022-10-16T14:35:26;1.40;;;1.20;;
14306;SDS011;7237;49.500;11.400;2022-10-16T14:37:54;2.10;;;1.90;;
14306;SDS011;7237;49.500;11.400;2022-10-16T14:40:23;4.63;;;1.67;;
14306;SDS011;7237;49.500;11.400;2022-10-16T14:42:50;2.55;;;1.23;;
14306;SDS011;7237;49.500;11.400;2022-10-16T14:45:19;3.35;;;1.15;;
14306;SDS011;7237;49.500;11.400;2022-10-16T14:47:48;1.13;;;1.00;;
14306;SDS011;7237;49.500;11.400;2022-10-16T14:50:15;3.03;;;1.30;;
14306;SDS011;7237;49.500;11.400;2022-10-16T14:52:42;6.35;;;1.33;;
14306;SDS011;7237;49.500;11.400;2022-10-16T14:55:10;1.35;;;1.25;;
14306;SDS011;7237;49.500;11.400;2022-10-16T14:57:37;3.28;;;1.25;;
14306;SDS011;7237;49.500;11.400;2022-10-16T15:00:08;1.75;;;1.40;;
14306;SDS011;7237;49.500;11.400;2022-10-16T15:02:38;2.85;;;1.00;;
14306;SDS011;7237;49.500;11.400;2022-10-16T15:05:13;3.38;;;1.05;;
14306;SDS011;7237;49.500;11.400;2022-10-16T15:07:41;3.15;;;1.35;;
14306;SDS011;7237;49.500;11.400;2022-10-16T15:10:08;3.10;;;1.38;;
14306;SDS011;7237;49.500;11.400;2022-10-16T15:12:35;4.95;;;1.20;;